createdAt,value
2023-03-15T00:01:16.410Z,2.92
2023-03-15T00:03:43.439Z,2.75
2023-03-15T00:06:10.588Z,2.47
2023-03-15T00:08:37.268Z,3.25
2023-03-15T00:11:03.880Z,2.17
2023-03-15T00:13:30.751Z,1.92
2023-03-15T00:15:59.436Z,3.13
2023-03-15T00:18:26.463Z,2.90
2023-03-15T00:20:52.866Z,2.20
2023-03-15T00:23:19.340Z,3.05
2023-03-15T00:25:47.632Z,2.33
2023-03-15T00:28:14.940Z,2.60
2023-03-15T00:30:41.812Z,2.58
2023-03-15T00:33:09.250Z,2.47
2023-03-15T00:35:39.342Z,2.63
2023-03-15T00:38:05.880Z,2.93
2023-03-15T00:40:32.261Z,3.00
2023-03-15T00:42:58.874Z,2.75
2023-03-15T00:45:25.380Z,3.20
2023-03-15T00:47:54.299Z,3.80
2023-03-15T00:50:22.764Z,3.63
2023-03-15T00:52:49.535Z,2.20
2023-03-15T00:55:18.062Z,2.90
2023-03-15T00:57:46.152Z,2.50
2023-03-15T01:00:16.186Z,2.60
2023-03-15T01:02:42.609Z,2.28
2023-03-15T01:05:09.951Z,2.33
2023-03-15T01:07:36.532Z,2.63
2023-03-15T01:10:06.413Z,2.42
2023-03-15T01:12:33.883Z,2.50
2023-03-15T01:15:02.226Z,2.40
2023-03-15T01:17:28.927Z,3.00
2023-03-15T01:19:55.397Z,2.78
2023-03-15T01:22:21.943Z,2.65
2023-03-15T01:24:48.358Z,2.90
2023-03-15T01:27:14.772Z,2.80
2023-03-15T01:29:41.181Z,3.13
2023-03-15T01:32:09.098Z,2.88
2023-03-15T01:34:36.433Z,2.47
2023-03-15T01:37:03.034Z,3.90
2023-03-15T01:39:38.405Z,2.55
2023-03-15T01:42:04.908Z,3.22
2023-03-15T01:44:55.114Z,2.58
2023-03-15T01:47:25.800Z,2.13
2023-03-15T01:49:58.061Z,2.47
2023-03-15T01:52:30.262Z,2.22
2023-03-15T01:55:11.060Z,2.00
2023-03-15T01:57:56.295Z,2.40
2023-03-15T02:00:24.962Z,2.80
2023-03-15T02:03:04.336Z,2.53
2023-03-15T02:05:35.550Z,2.28
2023-03-15T02:08:07.196Z,2.58
2023-03-15T02:10:45.120Z,2.75
2023-03-15T02:13:15.596Z,2.63
2023-03-15T02:15:46.551Z,2.33
2023-03-15T02:18:17.941Z,2.67
2023-03-15T02:20:47.069Z,2.47
2023-03-15T02:23:17.068Z,2.70
2023-03-15T02:25:55.371Z,2.90
2023-03-15T02:28:22.505Z,2.70
2023-03-15T02:30:49.239Z,3.28
2023-03-15T02:33:26.357Z,2.30
2023-03-15T02:40:17.855Z,1.88
2023-03-15T02:42:44.336Z,2.50
2023-03-15T02:45:10.906Z,2.28
2023-03-15T02:47:38.502Z,4.38
2023-03-15T02:50:05.397Z,2.88
2023-03-15T02:52:31.785Z,2.60
2023-03-15T02:54:58.205Z,2.80
2023-03-15T02:57:24.602Z,2.88
2023-03-15T02:59:52.446Z,2.90
2023-03-15T03:02:19.324Z,2.55
2023-03-15T03:04:45.788Z,2.75
2023-03-15T03:07:12.308Z,2.75
2023-03-15T03:09:46.382Z,2.35
2023-03-15T03:12:13.896Z,2.45
2023-03-15T03:14:43.211Z,3.25
2023-03-15T03:17:13.115Z,4.18
2023-03-15T03:19:40.124Z,3.53
2023-03-15T03:22:06.671Z,2.20
2023-03-15T03:24:33.758Z,2.72
2023-03-15T03:27:00.814Z,2.33
2023-03-15T03:29:30.518Z,2.30
2023-03-15T03:32:00.557Z,3.45
2023-03-15T03:34:27.075Z,3.08
2023-03-15T03:36:53.601Z,2.65
2023-03-15T03:39:32.046Z,2.67
2023-03-15T03:42:00.673Z,2.85
2023-03-15T03:44:27.100Z,3.38
2023-03-15T03:46:53.533Z,3.42
2023-03-15T03:49:19.963Z,2.70
2023-03-15T03:51:46.697Z,3.13
2023-03-15T03:54:13.195Z,2.70
2023-03-15T03:56:40.181Z,2.78
2023-03-15T03:59:06.871Z,2.55
2023-03-15T04:01:45.790Z,2.53
2023-03-15T04:04:14.878Z,2.60
2023-03-15T04:06:46.067Z,2.88
2023-03-15T04:09:16.374Z,3.50
2023-03-15T04:11:44.799Z,2.93
2023-03-15T04:14:13.019Z,2.70
2023-03-15T04:16:40.677Z,3.22
2023-03-15T04:19:09.492Z,2.72
2023-03-15T04:21:37.066Z,2.55
2023-03-15T04:24:34.691Z,2.78
2023-03-15T04:27:14.748Z,3.03
2023-03-15T04:30:05.271Z,2.35
2023-03-15T04:32:50.479Z,3.50
2023-03-15T04:35:37.358Z,3.10
2023-03-15T04:38:19.013Z,3.58
2023-03-15T04:41:00.944Z,2.30
2023-03-15T04:43:38.796Z,2.75
2023-03-15T04:46:25.059Z,3.03
2023-03-15T04:49:07.458Z,4.28
2023-03-15T04:51:52.765Z,2.85
2023-03-15T04:54:39.265Z,5.80
2023-03-15T04:57:31.761Z,3.20
2023-03-15T05:00:12.886Z,3.33
2023-03-15T05:05:51.279Z,3.58
2023-03-15T05:08:36.942Z,4.40
2023-03-15T05:11:12.181Z,3.20
2023-03-15T05:14:14.187Z,3.50
2023-03-15T05:16:48.325Z,3.67
2023-03-15T05:19:37.641Z,3.45
2023-03-15T05:22:25.662Z,2.92
2023-03-15T05:25:11.242Z,2.88
2023-03-15T05:27:52.846Z,3.17
2023-03-15T05:30:37.617Z,2.97
2023-03-15T05:33:11.236Z,3.28
2023-03-15T05:36:07.350Z,3.20
2023-03-15T05:38:39.397Z,3.10
2023-03-15T05:41:22.600Z,2.72
2023-03-15T05:44:06.166Z,2.92
2023-03-15T05:46:59.601Z,3.22
2023-03-15T05:49:46.457Z,3.70
2023-03-15T05:52:28.938Z,2.85
2023-03-15T05:55:10.018Z,3.22
2023-03-15T05:57:54.768Z,3.33
2023-03-15T06:00:36.372Z,2.75
2023-03-15T06:03:11.423Z,3.47
2023-03-15T06:05:47.257Z,3.88
2023-03-15T06:10:47.418Z,3.33
2023-03-15T06:13:17.141Z,3.05
2023-03-15T06:15:46.792Z,3.83
2023-03-15T06:18:14.261Z,3.90
2023-03-15T06:20:40.992Z,3.00
2023-03-15T06:25:43.716Z,2.88
2023-03-15T06:28:10.223Z,2.90
2023-03-15T06:30:41.002Z,4.10
2023-03-15T06:33:07.746Z,3.25
2023-03-15T06:35:35.034Z,2.70
2023-03-15T06:38:01.558Z,3.40
2023-03-15T06:40:28.012Z,3.10
2023-03-15T06:42:54.614Z,4.38
2023-03-15T06:45:21.592Z,3.10
2023-03-15T06:47:49.166Z,3.05
2023-03-15T06:50:16.934Z,2.97
2023-03-15T06:52:43.353Z,3.20
2023-03-15T06:55:12.435Z,3.25
2023-03-15T06:57:40.146Z,2.33
2023-03-15T07:00:11.227Z,3.08
2023-03-15T07:05:05.006Z,3.38
2023-03-15T07:07:31.431Z,3.05
2023-03-15T07:09:57.842Z,3.33
2023-03-15T07:12:24.254Z,2.88
2023-03-15T07:14:50.658Z,2.38
2023-03-15T07:17:17.260Z,3.28
2023-03-15T07:19:55.498Z,2.85
2023-03-15T07:22:23.009Z,3.75
2023-03-15T07:24:49.437Z,3.30
2023-03-15T07:27:18.275Z,3.17
2023-03-15T07:29:45.720Z,2.70
2023-03-15T07:32:12.178Z,3.33
2023-03-15T07:34:38.631Z,3.28
2023-03-15T07:37:05.045Z,3.03
2023-03-15T07:39:32.579Z,3.38
2023-03-15T07:41:59.508Z,3.63
2023-03-15T07:44:31.523Z,3.08
2023-03-15T07:46:58.059Z,3.53
2023-03-15T07:49:24.596Z,3.38
2023-03-15T07:51:51.250Z,3.30
2023-03-15T07:54:17.705Z,4.22
2023-03-15T07:56:44.109Z,3.78
2023-03-15T07:59:11.057Z,3.47
2023-03-15T08:01:37.537Z,3.20
2023-03-15T08:04:04.107Z,3.63
2023-03-15T08:06:31.690Z,4.07
2023-03-15T08:08:58.159Z,3.60
2023-03-15T08:11:24.586Z,3.33
2023-03-15T08:13:51.029Z,5.35
2023-03-15T08:16:17.465Z,3.95
2023-03-15T08:18:43.931Z,4.32
2023-03-15T08:21:10.344Z,5.07
2023-03-15T08:23:36.753Z,4.70
2023-03-15T08:26:03.168Z,5.32
2023-03-15T08:28:29.597Z,5.45
2023-03-15T08:30:56.006Z,5.13
2023-03-15T08:33:22.435Z,4.45
2023-03-15T08:35:55.118Z,5.45
2023-03-15T08:38:21.597Z,4.85
2023-03-15T08:40:47.994Z,5.38
2023-03-15T08:43:14.461Z,6.28
2023-03-15T08:45:59.812Z,4.90
2023-03-15T08:48:27.179Z,4.63
2023-03-15T08:50:53.807Z,5.30
2023-03-15T08:53:20.231Z,5.05
2023-03-15T08:55:48.659Z,4.82
2023-03-15T08:58:15.053Z,4.38
2023-03-15T09:00:41.490Z,5.15
2023-03-15T09:03:08.666Z,4.72
2023-03-15T09:05:35.998Z,5.43
2023-03-15T09:08:02.424Z,5.70
2023-03-15T09:10:28.816Z,4.55
2023-03-15T09:12:55.552Z,5.72
2023-03-15T09:15:22.093Z,5.78
2023-03-15T09:17:51.018Z,4.50
2023-03-15T09:20:19.199Z,4.03
2023-03-15T09:22:57.352Z,4.18
2023-03-15T09:25:25.117Z,3.83
2023-03-15T09:27:51.746Z,3.83
2023-03-15T09:30:18.278Z,3.88
2023-03-15T09:32:45.810Z,3.95
2023-03-15T09:35:19.970Z,3.35
2023-03-15T09:37:47.829Z,3.28
2023-03-15T09:40:38.291Z,3.55
2023-03-15T09:43:07.731Z,2.57
2023-03-15T09:46:03.912Z,4.18
2023-03-15T09:48:37.788Z,3.83
2023-03-15T09:51:18.896Z,2.88
2023-03-15T09:53:58.578Z,3.15
2023-03-15T09:56:39.945Z,3.10
2023-03-15T09:59:06.908Z,2.92
2023-03-15T10:01:39.700Z,3.15
2023-03-15T10:04:14.156Z,3.42
2023-03-15T10:06:46.339Z,3.20
2023-03-15T10:09:17.948Z,3.25
2023-03-15T10:11:56.632Z,3.17
2023-03-15T10:14:36.298Z,3.10
2023-03-15T10:17:11.831Z,3.17
2023-03-15T10:20:12.203Z,3.65
2023-03-15T10:22:59.273Z,3.40
2023-03-15T10:25:28.267Z,2.72
2023-03-15T10:28:04.413Z,4.05
2023-03-15T10:30:36.440Z,3.15
2023-03-15T10:33:10.502Z,2.95
2023-03-15T10:35:38.247Z,3.78
2023-03-15T10:38:15.401Z,3.40
2023-03-15T10:40:41.768Z,2.10
2023-03-15T10:43:19.476Z,2.78
2023-03-15T10:46:03.481Z,2.97
2023-03-15T10:48:32.551Z,2.33
2023-03-15T10:51:19.982Z,2.03
2023-03-15T10:53:53.762Z,2.45
2023-03-15T10:56:26.126Z,2.35
2023-03-15T10:59:11.356Z,2.10
2023-03-15T11:01:38.302Z,2.58
2023-03-15T11:04:26.853Z,2.72
2023-03-15T11:07:04.632Z,2.28
2023-03-15T11:09:42.538Z,2.47
2023-03-15T11:12:16.461Z,2.28
2023-03-15T11:14:48.190Z,2.13
2023-03-15T11:17:21.335Z,2.60
2023-03-15T11:19:59.872Z,2.50
2023-03-15T11:22:26.390Z,3.22
2023-03-15T11:24:54.733Z,2.85
2023-03-15T11:27:23.579Z,1.98
2023-03-15T11:29:58.165Z,3.97
2023-03-15T11:32:27.159Z,2.85
2023-03-15T11:35:06.637Z,2.13
2023-03-15T11:37:47.345Z,2.15
2023-03-15T11:40:23.676Z,2.47
2023-03-15T11:43:18.535Z,2.08
2023-03-15T11:45:51.464Z,2.45
2023-03-15T11:48:42.335Z,1.98
2023-03-15T11:51:11.985Z,2.55
2023-03-15T11:53:46.006Z,1.80
2023-03-15T11:56:28.130Z,1.95
2023-03-15T11:59:28.636Z,2.50
2023-03-15T12:02:10.263Z,1.70
2023-03-15T12:04:36.631Z,1.95
2023-03-15T12:07:06.551Z,2.10
2023-03-15T12:09:32.882Z,2.22
2023-03-15T12:12:23.961Z,3.13
2023-03-15T12:15:32.275Z,2.50
2023-03-15T12:18:00.330Z,2.60
2023-03-15T12:20:40.835Z,2.47
2023-03-15T12:23:28.692Z,2.78
2023-03-15T12:26:05.315Z,2.97
2023-03-15T12:29:00.646Z,2.53
2023-03-15T12:31:43.132Z,2.30
2023-03-15T12:34:15.690Z,2.15
2023-03-15T12:36:48.440Z,2.83
2023-03-15T12:39:14.779Z,2.10
2023-03-15T12:41:44.580Z,2.28
2023-03-15T12:44:32.680Z,1.83
2023-03-15T12:47:01.568Z,2.25
2023-03-15T12:49:36.908Z,1.90
2023-03-15T12:52:27.224Z,2.40
2023-03-15T12:55:16.012Z,2.30
2023-03-15T12:57:57.947Z,2.30
2023-03-15T13:00:27.687Z,1.77
2023-03-15T13:03:04.896Z,2.22
2023-03-15T13:05:45.232Z,1.92
2023-03-15T13:08:24.487Z,2.47
2023-03-15T13:10:50.827Z,2.38
2023-03-15T13:13:17.181Z,2.65
2023-03-15T13:16:17.544Z,1.98
2023-03-15T13:19:22.896Z,2.10
2023-03-15T13:22:14.374Z,1.98
2023-03-15T13:24:57.754Z,2.58
2023-03-15T13:27:38.086Z,2.60
2023-03-15T13:30:52.350Z,2.00
2023-03-15T13:33:21.001Z,2.33
2023-03-15T13:35:56.424Z,2.30
2023-03-15T13:38:40.809Z,2.75
2023-03-15T13:41:27.515Z,2.55
2023-03-15T13:43:56.952Z,2.80
2023-03-15T13:46:26.664Z,2.28
2023-03-15T13:48:55.001Z,2.50
2023-03-15T13:51:27.162Z,1.83
2023-03-15T13:53:57.901Z,2.30
2023-03-15T13:59:12.179Z,1.98
2023-03-15T14:01:42.350Z,1.77
2023-03-15T14:04:16.327Z,1.65
2023-03-15T14:06:45.642Z,1.45
2023-03-15T14:09:29.894Z,1.85
2023-03-15T14:12:06.346Z,1.80
2023-03-15T14:14:38.605Z,1.50
2023-03-15T14:17:20.698Z,1.60
2023-03-15T14:19:54.900Z,1.83
2023-03-15T14:22:21.409Z,2.42
2023-03-15T14:24:51.148Z,1.60
2023-03-15T14:27:25.582Z,1.70
2023-03-15T14:29:55.333Z,1.38
2023-03-15T14:32:33.551Z,1.45
2023-03-15T14:35:04.223Z,1.02
2023-03-15T14:37:42.158Z,1.25
2023-03-15T14:40:23.327Z,1.05
2023-03-15T14:45:18.566Z,1.30
2023-03-15T14:47:56.726Z,1.73
2023-03-15T14:50:27.500Z,1.50
2023-03-15T14:52:55.706Z,1.63
2023-03-15T14:55:27.431Z,1.63
2023-03-15T14:57:53.855Z,1.88
2023-03-15T15:00:20.713Z,1.40
2023-03-15T15:02:51.799Z,1.48
2023-03-15T15:07:54.593Z,1.52
2023-03-15T15:10:23.391Z,1.50
2023-03-15T15:12:56.424Z,1.55
2023-03-15T15:15:31.015Z,1.70
2023-03-15T15:17:58.646Z,1.55
2023-03-15T15:20:25.434Z,1.70
2023-03-15T15:22:51.858Z,1.67
2023-03-15T15:25:21.878Z,1.60
2023-03-15T15:27:51.721Z,1.90
2023-03-15T15:30:22.898Z,2.10
2023-03-15T15:32:49.635Z,1.98
2023-03-15T15:35:19.061Z,1.33
2023-03-15T15:37:48.151Z,1.85
2023-03-15T15:40:24.704Z,2.53
2023-03-15T15:42:51.096Z,1.33
2023-03-15T15:45:18.284Z,1.50
2023-03-15T15:47:45.094Z,1.98
2023-03-15T15:50:13.928Z,1.65
2023-03-15T15:52:44.361Z,2.08
2023-03-15T15:55:21.574Z,1.75
2023-03-15T15:57:49.757Z,1.80
2023-03-15T16:00:23.868Z,1.58
2023-03-15T16:02:52.598Z,1.55
2023-03-15T16:05:20.837Z,1.35
2023-03-15T16:07:47.234Z,1.60
2023-03-15T16:10:21.036Z,2.35
2023-03-15T16:12:48.342Z,1.85
2023-03-15T16:15:16.567Z,1.38
2023-03-15T16:17:44.291Z,1.33
2023-03-15T16:20:12.644Z,1.17
2023-03-15T16:22:42.837Z,1.48
2023-03-15T16:25:15.687Z,1.33
2023-03-15T16:27:42.795Z,1.50
2023-03-15T16:30:21.843Z,1.30
2023-03-15T16:32:48.876Z,1.20
2023-03-15T16:35:15.918Z,1.60
2023-03-15T16:37:43.638Z,1.50
2023-03-15T16:40:25.257Z,1.40
2023-03-15T16:42:51.671Z,1.58
2023-03-15T16:45:18.190Z,1.70
2023-03-15T16:47:44.593Z,2.42
2023-03-15T16:50:11.967Z,1.30
2023-03-15T16:52:39.577Z,1.90
2023-03-15T16:55:06.559Z,1.67
2023-03-15T16:57:33.047Z,2.13
2023-03-15T16:59:59.495Z,1.83
2023-03-15T17:02:28.700Z,2.03
2023-03-15T17:04:55.673Z,3.08
2023-03-15T17:07:27.703Z,2.72
2023-03-15T17:09:54.262Z,1.58
2023-03-15T17:12:26.891Z,2.97
2023-03-15T17:14:55.428Z,2.03
2023-03-15T17:17:21.914Z,1.67
2023-03-15T17:19:48.353Z,1.83
2023-03-15T17:22:16.806Z,1.75
2023-03-15T17:24:43.326Z,1.85
2023-03-15T17:27:22.137Z,1.80
2023-03-15T17:29:48.851Z,1.65
2023-03-15T17:32:15.333Z,1.58
2023-03-15T17:34:46.982Z,1.75
2023-03-15T17:37:14.753Z,1.85
2023-03-15T17:39:42.193Z,1.40
2023-03-15T17:42:15.185Z,1.90
2023-03-15T17:44:42.203Z,2.20
2023-03-15T17:47:12.403Z,2.00
2023-03-15T17:49:38.902Z,2.10
2023-03-15T17:52:12.337Z,1.88
2023-03-15T17:54:38.732Z,1.95
2023-03-15T17:57:05.147Z,2.53
2023-03-15T17:59:31.569Z,1.88
2023-03-15T18:01:58.070Z,1.90
2023-03-15T18:04:24.600Z,1.77
2023-03-15T18:06:51.027Z,1.90
2023-03-15T18:09:17.417Z,3.47
2023-03-15T18:11:45.900Z,2.05
2023-03-15T18:14:14.702Z,1.42
2023-03-15T18:16:42.135Z,2.65
2023-03-15T18:19:08.612Z,2.22
2023-03-15T18:21:35.065Z,2.05
2023-03-15T18:24:01.534Z,1.60
2023-03-15T18:26:28.048Z,1.90
2023-03-15T18:28:54.463Z,1.40
2023-03-15T18:31:26.087Z,1.52
2023-03-15T18:33:53.189Z,1.98
2023-03-15T18:36:20.199Z,1.65
2023-03-15T18:38:46.706Z,2.33
2023-03-15T18:41:22.535Z,1.90
2023-03-15T18:43:50.064Z,1.85
2023-03-15T18:46:24.585Z,1.70
2023-03-15T18:48:53.475Z,1.88
2023-03-15T18:51:25.654Z,2.10
2023-03-15T18:53:52.296Z,1.70
2023-03-15T18:56:21.352Z,2.20
2023-03-15T18:58:49.036Z,2.22
2023-03-15T19:01:16.137Z,2.47
2023-03-15T19:03:43.237Z,2.15
2023-03-15T19:06:11.711Z,2.53
2023-03-15T19:08:38.298Z,2.70
2023-03-15T19:11:05.976Z,2.35
2023-03-15T19:13:32.414Z,3.38
2023-03-15T19:15:58.883Z,1.92
2023-03-15T19:18:25.424Z,3.15
2023-03-15T19:20:52.518Z,2.40
2023-03-15T19:23:20.237Z,2.60
2023-03-15T19:25:47.780Z,2.22
2023-03-15T19:28:14.476Z,1.70
2023-03-15T19:30:41.892Z,2.17
2023-03-15T19:33:08.700Z,1.48
2023-03-15T19:35:35.247Z,1.80
2023-03-15T19:38:01.827Z,1.80
2023-03-15T19:40:28.462Z,2.00
2023-03-15T19:42:54.928Z,1.50
2023-03-15T19:45:21.331Z,1.58
2023-03-15T19:47:47.762Z,1.67
2023-03-15T19:50:15.156Z,2.70
2023-03-15T19:52:46.065Z,4.45
2023-03-15T19:55:20.263Z,4.15
2023-03-15T19:57:47.540Z,4.13
2023-03-15T20:00:16.211Z,4.60
2023-03-15T20:02:44.123Z,4.95
2023-03-15T20:05:13.366Z,7.22
2023-03-15T20:07:39.827Z,5.95
2023-03-15T20:10:08.471Z,5.30
2023-03-15T20:12:35.802Z,4.53
2023-03-15T20:15:02.397Z,4.20
2023-03-15T20:17:28.848Z,3.42
2023-03-15T20:19:55.431Z,3.63
2023-03-15T20:22:21.851Z,3.33
2023-03-15T20:24:48.284Z,3.13
2023-03-15T20:27:14.703Z,3.25
2023-03-15T20:29:41.134Z,2.47
2023-03-15T20:32:07.570Z,2.80
2023-03-15T20:34:34.954Z,2.58
2023-03-15T20:37:01.900Z,2.28
2023-03-15T20:39:28.346Z,3.05
2023-03-15T20:41:54.781Z,2.63
2023-03-15T20:44:21.326Z,2.28
2023-03-15T20:46:47.839Z,2.28
2023-03-15T20:49:15.305Z,2.60
2023-03-15T20:51:41.702Z,2.30
2023-03-15T20:54:08.106Z,2.38
2023-03-15T20:56:34.503Z,2.33
2023-03-15T20:59:01.514Z,2.30
2023-03-15T21:01:27.907Z,2.58
2023-03-15T21:03:56.130Z,1.90
2023-03-15T21:06:22.865Z,3.67
2023-03-15T21:08:49.304Z,4.07
2023-03-15T21:11:15.835Z,3.72
2023-03-15T21:13:42.252Z,4.35
2023-03-15T21:16:08.720Z,3.65
2023-03-15T21:18:38.452Z,3.85
2023-03-15T21:21:07.288Z,4.63
2023-03-15T21:23:34.442Z,4.65
2023-03-15T21:26:06.208Z,3.90
2023-03-15T21:28:32.893Z,4.75
2023-03-15T21:30:59.471Z,4.10
2023-03-15T21:33:28.136Z,4.65
2023-03-15T21:35:55.941Z,4.72
2023-03-15T21:38:22.816Z,4.25
2023-03-15T21:40:52.520Z,4.80
2023-03-15T21:43:19.110Z,4.40
2023-03-15T21:45:46.048Z,4.50
2023-03-15T21:48:12.518Z,4.65
2023-03-15T21:50:38.914Z,5.07
2023-03-15T21:53:05.321Z,4.60
2023-03-15T21:55:33.604Z,4.20
2023-03-15T21:58:01.891Z,4.05
2023-03-15T22:00:30.031Z,4.38
2023-03-15T22:02:56.937Z,3.55
2023-03-15T22:05:23.758Z,3.70
2023-03-15T22:07:50.195Z,5.80
2023-03-15T22:10:17.042Z,4.15
2023-03-15T22:12:43.464Z,4.80
2023-03-15T22:15:10.257Z,3.60
2023-03-15T22:17:36.696Z,3.63
2023-03-15T22:20:09.044Z,3.75
2023-03-15T22:22:35.434Z,3.60
2023-03-15T22:25:01.829Z,3.92
2023-03-15T22:27:28.258Z,4.07
2023-03-15T22:29:54.672Z,3.50
2023-03-15T22:32:21.069Z,3.67
2023-03-15T22:34:47.471Z,4.10
2023-03-15T22:37:13.863Z,3.65
2023-03-15T22:39:41.880Z,4.05
2023-03-15T22:42:08.985Z,2.83
2023-03-15T22:44:35.421Z,3.50
2023-03-15T22:47:01.938Z,3.30
2023-03-15T22:49:28.361Z,3.35
2023-03-15T22:51:54.747Z,3.13
2023-03-15T22:54:21.274Z,3.40
2023-03-15T22:56:47.687Z,3.35
2023-03-15T22:59:14.096Z,3.70
2023-03-15T23:01:40.991Z,3.97
2023-03-15T23:04:07.523Z,3.88
2023-03-15T23:06:33.998Z,4.68
2023-03-15T23:09:00.780Z,3.90
2023-03-15T23:11:27.246Z,3.97
2023-03-15T23:13:53.688Z,3.70
2023-03-15T23:16:20.157Z,4.57
2023-03-15T23:18:48.581Z,3.30
2023-03-15T23:21:15.037Z,3.05
2023-03-15T23:23:44.975Z,3.88
2023-03-15T23:26:16.623Z,3.03
2023-03-15T23:28:43.352Z,3.10
2023-03-15T23:31:09.822Z,3.50
2023-03-15T23:33:36.300Z,3.20
2023-03-15T23:36:05.667Z,3.42
2023-03-15T23:38:34.517Z,3.42
2023-03-15T23:41:01.963Z,3.47
2023-03-15T23:43:28.388Z,3.30
2023-03-15T23:45:59.720Z,3.90
2023-03-15T23:48:26.877Z,3.67
2023-03-15T23:50:57.612Z,3.15
2023-03-15T23:53:28.000Z,3.35
2023-03-15T23:55:54.958Z,3.08
2023-03-15T23:58:21.858Z,3.70
